Isle of North Uist, United Kingdom
Current Conditions -  °F | °C
As of 12:20 PM on Sunday 23 Nov 2014 (Local Time) from EGPL Reporting Station
Scattered Clouds Scattered Clouds  
Wind Chill: 42°   Ceiling: Unl
Heat Index: 48°   Visibility: 6mi
Dew Point: 39°   Wind: 17mph
Humidity: 71%   Direction: 240°WSW
Pressure: 29.94"   Gusts: NA
Location:  57.6°N, 7.16°W
Report Text: EGPL 231220Z AUTO 24015KT 9999 SCT035/// 09/04 Q1014
Loading
Personal Weather Stations






























Interactive Weather Map New forecast layout! Learn more

10-Day Weather Forecast

Advertisements
Track Severe Weather on mobile